createdAt,value
2019-04-01T00:01:50.512Z,5.28
2019-04-01T00:04:23.301Z,5.27
2019-04-01T00:06:56.078Z,5.31
2019-04-01T00:09:28.802Z,5.28
2019-04-01T00:12:03.172Z,5.27
2019-04-01T00:14:35.997Z,5.28
2019-04-01T00:17:09.225Z,5.27
2019-04-01T00:19:41.970Z,5.40
2019-04-01T00:22:14.714Z,5.33
2019-04-01T00:24:47.506Z,5.30
2019-04-01T00:27:20.360Z,5.31
2019-04-01T00:29:53.097Z,5.28
2019-04-01T00:32:25.921Z,5.30
2019-04-01T00:34:58.644Z,5.40
2019-04-01T00:37:31.856Z,5.45
2019-04-01T00:40:04.606Z,5.30
2019-04-01T00:42:50.505Z,5.51
2019-04-01T00:45:24.750Z,5.43
2019-04-01T00:47:57.569Z,5.26
2019-04-01T00:50:30.384Z,5.58
2019-04-01T00:53:03.206Z,5.44
2019-04-01T00:55:36.015Z,5.24
2019-04-01T00:58:08.779Z,5.51
2019-04-01T01:00:41.589Z,5.35
2019-04-01T01:03:14.416Z,5.34
2019-04-01T01:05:47.293Z,5.43
2019-04-01T01:08:20.440Z,5.23
2019-04-01T01:10:54.325Z,5.61
2019-04-01T01:13:27.290Z,5.43
2019-04-01T01:16:00.115Z,5.30
2019-04-01T01:18:33.002Z,5.34
2019-04-01T01:21:07.357Z,5.50
2019-04-01T01:23:41.182Z,5.43
2019-04-01T01:26:13.918Z,5.41
2019-04-01T01:28:46.800Z,5.62
2019-04-01T01:31:19.760Z,5.33
2019-04-01T01:33:52.739Z,5.64
2019-04-01T01:36:25.925Z,5.54
2019-04-01T01:38:58.730Z,5.26
2019-04-01T01:41:31.580Z,5.72
2019-04-01T01:44:04.920Z,5.48
2019-04-01T01:46:37.834Z,5.33
2019-04-01T01:49:10.708Z,5.52
2019-04-01T01:51:43.538Z,5.24
2019-04-01T01:54:17.438Z,5.68
2019-04-01T01:56:50.296Z,5.45
2019-04-01T01:59:23.221Z,5.41
2019-04-01T02:01:56.149Z,5.72
2019-04-01T02:04:29.084Z,5.40
2019-04-01T02:07:07.312Z,5.51
2019-04-01T02:09:44.748Z,5.48
2019-04-01T02:12:18.863Z,5.26
2019-04-01T02:14:51.716Z,5.60
2019-04-01T02:17:24.628Z,5.30
2019-04-01T02:19:57.557Z,5.71
2019-04-01T02:22:31.467Z,5.58
2019-04-01T02:25:04.245Z,5.24
2019-04-01T02:27:38.151Z,5.62
2019-04-01T02:30:10.995Z,5.38
2019-04-01T02:32:43.969Z,5.60
2019-04-01T02:35:16.879Z,5.60
2019-04-01T02:37:49.756Z,5.31
2019-04-01T02:40:22.621Z,5.65
2019-04-01T02:42:55.523Z,5.43
2019-04-01T02:45:28.297Z,5.48
2019-04-01T02:48:01.227Z,5.67
2019-04-01T02:50:35.250Z,5.35
2019-04-01T02:53:08.099Z,5.60
2019-04-01T02:55:41.137Z,5.45
2019-04-01T02:58:14.171Z,5.50
2019-04-01T03:00:47.118Z,5.75
2019-04-01T03:03:20.224Z,5.40
2019-04-01T03:05:54.418Z,5.67
2019-04-01T03:08:27.328Z,5.65
2019-04-01T03:11:00.316Z,5.30
2019-04-01T03:13:33.375Z,5.69
2019-04-01T03:16:06.471Z,5.38
2019-04-01T03:18:39.436Z,5.69
2019-04-01T03:21:12.394Z,5.60
2019-04-01T03:23:45.490Z,5.23
2019-04-01T03:26:18.533Z,5.68
2019-04-01T03:28:52.858Z,5.35
2019-04-01T03:31:25.998Z,5.72
2019-04-01T03:33:58.834Z,5.50
2019-04-01T03:36:32.523Z,5.45
2019-04-01T03:39:07.317Z,5.71
2019-04-01T03:41:40.334Z,5.28
2019-04-01T03:44:14.534Z,5.79
2019-04-01T03:46:47.505Z,5.52
2019-04-01T03:49:20.440Z,5.40
2019-04-01T03:51:54.842Z,5.68
2019-04-01T03:54:27.915Z,5.30
2019-04-01T03:57:01.325Z,5.68
2019-04-01T03:59:34.302Z,5.31
2019-04-01T04:02:07.852Z,5.77
2019-04-01T04:04:41.212Z,5.54
2019-04-01T04:07:16.768Z,5.33
2019-04-01T04:09:53.800Z,5.67
2019-04-01T04:12:27.434Z,5.24
2019-04-01T04:15:03.725Z,5.60
2019-04-01T04:17:36.894Z,5.24
2019-04-01T04:20:13.572Z,5.74
2019-04-01T04:22:50.113Z,5.34
2019-04-01T04:25:23.222Z,5.78
2019-04-01T04:27:56.412Z,5.51
2019-04-01T04:30:30.558Z,5.50
2019-04-01T04:33:03.662Z,5.74
2019-04-01T04:35:36.903Z,5.28
2019-04-01T04:38:10.467Z,5.89
2019-04-01T04:40:43.606Z,5.58
2019-04-01T04:43:16.779Z,5.28
2019-04-01T04:45:49.998Z,5.69
2019-04-01T04:48:23.233Z,5.28
2019-04-01T04:50:56.467Z,5.71
2019-04-01T04:53:29.833Z,5.35
2019-04-01T04:56:03.095Z,5.74
2019-04-01T04:58:36.467Z,5.52
2019-04-01T05:01:09.708Z,5.37
2019-04-01T05:03:42.932Z,5.67
2019-04-01T05:06:16.065Z,5.28
2019-04-01T05:08:50.715Z,5.84
2019-04-01T05:11:24.286Z,5.55
2019-04-01T05:13:57.779Z,5.28
2019-04-01T05:16:30.998Z,5.74
2019-04-01T05:19:04.166Z,5.40
2019-04-01T05:21:37.823Z,5.64
2019-04-01T05:24:12.089Z,5.54
2019-04-01T05:26:46.163Z,5.23
2019-04-01T05:29:19.383Z,5.52
2019-04-01T05:31:52.632Z,5.31
2019-04-01T05:34:25.979Z,5.64
2019-04-01T05:36:59.110Z,5.58
2019-04-01T05:39:33.229Z,5.41
2019-04-01T05:42:06.397Z,5.34
2019-04-01T05:44:39.530Z,5.27
2019-04-01T05:47:12.700Z,5.30
2019-04-01T05:49:45.847Z,5.38
2019-04-01T05:52:18.956Z,5.37
2019-04-01T05:54:52.057Z,5.35
2019-04-01T05:57:25.126Z,5.34
2019-04-01T05:59:58.122Z,5.34
2019-04-01T06:02:31.121Z,5.40
2019-04-01T06:05:04.097Z,5.43
2019-04-01T06:07:37.627Z,5.45
2019-04-01T06:10:10.568Z,5.50
2019-04-01T06:12:43.840Z,5.58
2019-04-01T06:15:16.770Z,5.64
2019-04-01T06:17:49.738Z,5.74
2019-04-01T06:20:22.671Z,5.78
2019-04-01T06:22:55.718Z,5.88
2019-04-01T06:25:29.306Z,5.96
2019-04-01T06:28:02.205Z,6.05
2019-04-01T06:30:35.208Z,6.16
2019-04-01T06:33:08.111Z,6.26
2019-04-01T06:35:41.179Z,6.34
2019-04-01T06:38:14.154Z,6.44
2019-04-01T06:40:47.233Z,6.54
2019-04-01T06:43:20.214Z,6.65
2019-04-01T06:45:53.227Z,6.78
2019-04-01T06:48:26.485Z,6.86
2019-04-01T06:50:59.395Z,6.96
2019-04-01T06:53:32.376Z,7.03
2019-04-01T06:56:05.366Z,7.10
2019-04-01T06:58:38.272Z,7.20
2019-04-01T07:01:11.265Z,7.33
2019-04-01T07:03:44.135Z,7.42
2019-04-01T07:06:17.078Z,7.49
2019-04-01T07:08:49.962Z,7.58
2019-04-01T07:11:23.101Z,7.70
2019-04-01T07:13:56.043Z,7.76
2019-04-01T07:16:29.082Z,7.85
2019-04-01T07:19:02.076Z,7.90
2019-04-01T07:21:35.035Z,7.97
2019-04-01T07:24:08.034Z,8.03
2019-04-01T07:26:41.331Z,8.13
2019-04-01T07:29:14.369Z,8.24
2019-04-01T07:31:47.391Z,11.19
2019-04-01T07:34:20.360Z,12.44
2019-04-01T07:36:53.341Z,11.72
2019-04-01T07:39:26.304Z,11.15
2019-04-01T07:41:59.282Z,10.84
2019-04-01T07:44:32.266Z,10.68
2019-04-01T07:47:05.225Z,10.55
2019-04-01T07:49:38.259Z,10.49
2019-04-01T07:52:12.719Z,10.41
2019-04-01T07:54:45.954Z,10.38
2019-04-01T07:57:19.226Z,10.35
2019-04-01T07:59:52.177Z,10.34
2019-04-01T08:02:25.311Z,10.31
2019-04-01T08:04:59.638Z,10.34
2019-04-01T08:07:32.685Z,10.34
2019-04-01T08:10:06.353Z,10.35
2019-04-01T08:12:39.202Z,10.36
2019-04-01T08:15:13.729Z,10.39
2019-04-01T08:17:46.645Z,10.41
2019-04-01T08:20:20.556Z,10.46
2019-04-01T08:22:54.375Z,10.51
2019-04-01T08:25:27.210Z,10.49
2019-04-01T08:28:00.143Z,10.49
2019-04-01T08:30:33.500Z,10.49
2019-04-01T08:33:07.657Z,10.52
2019-04-01T08:35:40.508Z,10.55
2019-04-01T08:38:13.425Z,10.56
2019-04-01T08:40:47.291Z,10.61
2019-04-01T08:43:20.312Z,10.63
2019-04-01T08:45:54.312Z,10.69
2019-04-01T08:48:28.270Z,10.75
2019-04-01T08:51:02.149Z,10.82
2019-04-01T08:53:35.121Z,10.86
2019-04-01T08:56:07.942Z,10.86
2019-04-01T08:58:41.178Z,10.90
2019-04-01T09:01:14.080Z,10.93
2019-04-01T09:03:47.005Z,10.93
2019-04-01T09:06:19.927Z,10.97
2019-04-01T09:08:52.827Z,11.01
2019-04-01T09:11:25.728Z,11.06
2019-04-01T09:13:59.116Z,11.06
2019-04-01T09:16:32.134Z,11.10
2019-04-01T09:19:05.026Z,11.11
2019-04-01T09:21:37.840Z,11.11
2019-04-01T09:24:10.711Z,11.17
2019-04-01T09:26:43.640Z,11.15
2019-04-01T09:29:16.648Z,11.19
2019-04-01T09:31:49.790Z,11.22
2019-04-01T09:34:22.663Z,11.27
2019-04-01T09:36:55.511Z,11.28
2019-04-01T09:39:28.360Z,11.28
2019-04-01T09:42:01.255Z,11.37
2019-04-01T09:44:37.057Z,11.42
2019-04-01T09:47:08.824Z,11.48
2019-04-01T09:49:41.663Z,11.56
2019-04-01T09:52:14.545Z,11.58
2019-04-01T09:54:47.336Z,11.56
2019-04-01T09:57:20.175Z,11.59
2019-04-01T09:59:53.169Z,11.58
2019-04-01T10:02:32.101Z,11.61
2019-04-01T10:05:01.618Z,11.62
2019-04-01T10:07:34.590Z,11.66
2019-04-01T10:10:07.556Z,11.65
2019-04-01T10:12:40.480Z,11.72
2019-04-01T10:15:13.388Z,11.76
2019-04-01T10:17:46.272Z,11.86
2019-04-01T10:20:19.118Z,11.94
2019-04-01T10:22:52.003Z,12.00
2019-04-01T10:25:24.986Z,12.00
2019-04-01T10:27:57.880Z,12.01
2019-04-01T10:30:30.714Z,12.04
2019-04-01T10:33:03.637Z,12.04
2019-04-01T10:35:36.855Z,12.04
2019-04-01T10:38:09.901Z,12.03
2019-04-01T10:40:42.805Z,12.05
2019-04-01T10:43:15.641Z,12.08
2019-04-01T10:45:48.561Z,12.05
2019-04-01T10:48:21.577Z,12.07
2019-04-01T10:50:54.804Z,12.07
2019-04-01T10:53:27.617Z,12.05
2019-04-01T10:56:01.444Z,12.10
2019-04-01T10:58:34.329Z,12.07
2019-04-01T11:01:07.211Z,12.13
2019-04-01T11:03:40.087Z,12.11
2019-04-01T11:06:12.938Z,12.13
2019-04-01T11:08:45.847Z,12.13
2019-04-01T11:11:18.748Z,12.11
2019-04-01T11:14:09.587Z,12.10
2019-04-01T11:17:03.756Z,12.17
2019-04-01T11:19:34.436Z,12.18
2019-04-01T11:22:07.304Z,12.18
2019-04-01T11:24:40.207Z,12.18
2019-04-01T11:27:13.186Z,12.17
2019-04-01T11:29:46.452Z,12.20
2019-04-01T11:32:20.032Z,12.25
2019-04-01T11:34:56.027Z,12.27
2019-04-01T11:37:28.442Z,12.28
2019-04-01T11:40:01.352Z,12.29
2019-04-01T11:42:34.297Z,12.31
2019-04-01T11:45:08.377Z,12.31
2019-04-01T11:47:41.256Z,12.29
2019-04-01T11:50:14.187Z,12.29
2019-04-01T11:52:47.129Z,12.28
2019-04-01T11:55:20.218Z,12.29
2019-04-01T11:57:53.102Z,12.31
2019-04-01T12:00:26.355Z,12.34
2019-04-01T12:02:59.221Z,12.41
2019-04-01T12:05:32.250Z,12.42
2019-04-01T12:08:07.141Z,12.49
2019-04-01T12:10:40.007Z,12.49
2019-04-01T12:13:12.969Z,12.52
2019-04-01T12:15:45.965Z,12.53
2019-04-01T12:18:19.199Z,12.56
2019-04-01T12:20:52.091Z,12.55
2019-04-01T12:23:25.414Z,12.52
2019-04-01T12:25:58.214Z,12.53
2019-04-01T12:28:31.498Z,12.53
2019-04-01T12:31:04.310Z,12.52
2019-04-01T12:33:37.327Z,12.55
2019-04-01T12:36:11.804Z,12.56
2019-04-01T12:38:44.921Z,12.56
2019-04-01T12:41:18.323Z,12.58
2019-04-01T12:43:51.916Z,12.58
2019-04-01T12:46:24.860Z,12.59
2019-04-01T12:48:57.805Z,12.60
2019-04-01T12:51:30.570Z,12.62
2019-04-01T12:54:03.406Z,12.63
2019-04-01T12:56:36.413Z,12.65
2019-04-01T12:59:09.783Z,12.65
2019-04-01T13:01:42.598Z,12.65
2019-04-01T13:04:15.374Z,12.65
2019-04-01T13:06:48.243Z,12.65
2019-04-01T13:09:22.119Z,12.62
2019-04-01T13:11:55.086Z,12.59
2019-04-01T13:14:27.898Z,12.58
2019-04-01T13:17:00.731Z,12.59
2019-04-01T13:19:33.574Z,12.59
2019-04-01T13:22:06.389Z,12.59
2019-04-01T13:24:39.320Z,12.60
2019-04-01T13:27:12.138Z,12.62
2019-04-01T13:29:45.385Z,12.63
2019-04-01T13:32:20.155Z,12.60
2019-04-01T13:34:53.209Z,12.59
2019-04-01T13:37:26.033Z,12.60
2019-04-01T13:40:02.223Z,12.62
2019-04-01T13:42:33.329Z,12.58
2019-04-01T13:45:06.621Z,12.52
2019-04-01T13:47:41.249Z,12.49
2019-04-01T13:50:16.402Z,12.48
2019-04-01T13:52:49.337Z,12.46
2019-04-01T13:55:22.574Z,12.45
2019-04-01T13:57:55.946Z,12.44
2019-04-01T14:00:28.923Z,12.42
2019-04-01T14:03:01.758Z,12.38
2019-04-01T14:05:34.747Z,12.35
2019-04-01T14:08:07.662Z,12.29
2019-04-01T14:10:40.795Z,12.27
2019-04-01T14:13:15.098Z,12.25
2019-04-01T14:15:51.210Z,12.21
2019-04-01T14:18:23.002Z,12.21
2019-04-01T14:20:55.957Z,12.20
2019-04-01T14:23:28.852Z,12.18
2019-04-01T14:26:01.736Z,12.17
2019-04-01T14:28:34.626Z,12.14
2019-04-01T14:31:07.777Z,12.11
2019-04-01T14:33:40.596Z,12.07
2019-04-01T14:36:13.449Z,12.03
2019-04-01T14:38:46.416Z,11.98
2019-04-01T14:41:25.919Z,11.94
2019-04-01T14:44:00.261Z,11.89
2019-04-01T14:46:33.146Z,11.82
2019-04-01T14:49:06.148Z,11.79
2019-04-01T14:51:39.413Z,11.76
2019-04-01T14:54:15.804Z,11.72
2019-04-01T14:57:08.791Z,11.66
2019-04-01T14:59:45.055Z,11.63
2019-04-01T15:03:08.584Z,11.59
2019-04-01T15:05:52.613Z,11.55
2019-04-01T15:08:31.313Z,11.48
2019-04-01T15:11:04.133Z,11.45
2019-04-01T15:13:38.424Z,11.39
2019-04-01T15:16:12.221Z,11.34
2019-04-01T15:18:45.531Z,11.34
2019-04-01T15:21:18.647Z,11.29
2019-04-01T15:23:53.336Z,11.25
2019-04-01T15:26:26.259Z,11.21
2019-04-01T15:29:00.370Z,11.19
2019-04-01T15:31:33.152Z,11.21
2019-04-01T15:34:08.979Z,11.14
2019-04-01T15:36:40.519Z,11.12
2019-04-01T15:39:15.348Z,11.08
2019-04-01T15:41:48.555Z,11.07
2019-04-01T15:44:21.347Z,11.03
2019-04-01T15:46:54.075Z,11.00
2019-04-01T15:49:26.897Z,10.96
2019-04-01T15:51:59.713Z,10.91
2019-04-01T15:54:33.219Z,10.86
2019-04-01T15:57:06.080Z,10.82
2019-04-01T15:59:39.083Z,10.78
2019-04-01T16:02:11.882Z,10.73
2019-04-01T16:04:45.671Z,10.69
2019-04-01T16:07:18.786Z,10.69
2019-04-01T16:09:52.705Z,10.63
2019-04-01T16:12:25.512Z,10.58
2019-04-01T16:14:58.295Z,10.53
2019-04-01T16:17:31.032Z,10.49
2019-04-01T16:20:06.567Z,10.46
2019-04-01T16:22:43.569Z,10.45
2019-04-01T16:25:15.410Z,10.39
2019-04-01T16:27:48.279Z,10.36
2019-04-01T16:30:21.290Z,10.32
2019-04-01T16:32:54.118Z,10.27
2019-04-01T16:35:26.844Z,10.25
2019-04-01T16:38:20.075Z,10.21
2019-04-01T16:40:57.437Z,10.17
2019-04-01T16:43:30.517Z,10.11
2019-04-01T16:46:03.451Z,10.10
2019-04-01T16:48:36.407Z,10.04
2019-04-01T16:51:09.481Z,9.98
2019-04-01T16:53:45.395Z,9.94
2019-04-01T16:56:18.131Z,9.92
2019-04-01T16:58:51.183Z,9.86
2019-04-01T17:01:24.908Z,9.80
2019-04-01T17:03:58.359Z,9.74
2019-04-01T17:06:31.335Z,9.73
2019-04-01T17:09:53.465Z,9.69
2019-04-01T17:12:55.781Z,9.61
2019-04-01T17:15:33.531Z,9.58
2019-04-01T17:18:30.026Z,9.51
2019-04-01T17:21:05.120Z,9.45
2019-04-01T17:23:41.680Z,9.39
2019-04-01T17:26:12.831Z,9.32
2019-04-01T17:28:45.996Z,9.28
2019-04-01T17:31:18.910Z,9.23
2019-04-01T17:33:51.851Z,9.20
2019-04-01T17:36:26.192Z,9.14
2019-04-01T17:38:59.203Z,9.08
2019-04-01T17:41:32.272Z,9.04
2019-04-01T17:44:06.810Z,8.97
2019-04-01T17:46:39.767Z,8.92
2019-04-01T17:49:18.063Z,8.89
2019-04-01T17:51:53.820Z,8.82
2019-04-01T17:54:25.778Z,8.76
2019-04-01T17:56:58.783Z,8.72
2019-04-01T17:59:32.505Z,8.65
2019-04-01T18:02:08.970Z,8.62
2019-04-01T18:04:41.994Z,8.52
2019-04-01T18:07:15.537Z,8.51
2019-04-01T18:09:48.560Z,8.44
2019-04-01T18:12:21.527Z,8.38
2019-04-01T18:14:55.431Z,8.34
2019-04-01T18:17:28.520Z,8.30
2019-04-01T18:20:01.505Z,8.24
2019-04-01T18:22:34.697Z,8.18
2019-04-01T18:25:07.680Z,8.17
2019-04-01T18:27:40.917Z,8.10
2019-04-01T18:30:14.167Z,8.07
2019-04-01T18:32:47.129Z,8.02
2019-04-01T18:35:20.111Z,8.00
2019-04-01T18:37:53.105Z,7.96
2019-04-01T18:40:32.483Z,7.90
2019-04-01T18:43:00.704Z,7.83
2019-04-01T18:45:34.975Z,7.82
2019-04-01T18:48:07.959Z,7.75
2019-04-01T18:50:43.189Z,7.73
2019-04-01T18:53:28.604Z,7.66
2019-04-01T18:56:05.658Z,7.65
2019-04-01T18:58:43.480Z,7.59
2019-04-01T19:01:16.669Z,7.55
2019-04-01T19:03:49.650Z,7.51
2019-04-01T19:06:22.659Z,7.48
2019-04-01T19:09:08.440Z,7.44
2019-04-01T19:11:30.425Z,7.39
2019-04-01T19:14:03.481Z,7.34
2019-04-01T19:16:38.350Z,7.30
2019-04-01T19:19:13.921Z,7.23
2019-04-01T19:21:47.993Z,7.20
2019-04-01T19:24:20.970Z,7.11
2019-04-01T19:26:54.153Z,7.07
2019-04-01T19:29:27.258Z,7.02
2019-04-01T19:32:01.242Z,7.00
2019-04-01T19:34:34.281Z,6.95
2019-04-01T19:37:09.029Z,6.90
2019-04-01T19:39:42.094Z,6.88
2019-04-01T19:42:17.968Z,6.82
2019-04-01T19:44:52.044Z,6.78
2019-04-01T19:47:25.004Z,6.75
2019-04-01T19:49:57.884Z,6.71
2019-04-01T19:52:30.745Z,6.65
2019-04-01T19:55:03.787Z,6.61
2019-04-01T19:57:36.904Z,6.58
2019-04-01T20:00:09.897Z,6.54
2019-04-01T20:02:42.913Z,6.51
2019-04-01T20:05:15.946Z,6.48
2019-04-01T20:07:49.051Z,6.45
2019-04-01T20:10:21.996Z,6.41
2019-04-01T20:12:55.057Z,6.38
2019-04-01T20:15:28.225Z,6.33
2019-04-01T20:18:01.423Z,6.31
2019-04-01T20:20:34.570Z,6.27
2019-04-01T20:23:07.695Z,6.26
2019-04-01T20:25:40.888Z,6.21
2019-04-01T20:28:13.874Z,6.18
2019-04-01T20:30:47.456Z,6.17
2019-04-01T20:33:20.799Z,6.12
2019-04-01T20:35:54.171Z,6.10
2019-04-01T20:38:27.671Z,6.06
2019-04-01T20:41:00.759Z,6.05
2019-04-01T20:43:33.848Z,6.00
2019-04-01T20:46:06.892Z,5.96
2019-04-01T20:48:39.848Z,5.93
2019-04-01T20:51:12.797Z,5.92
2019-04-01T20:53:47.164Z,5.86
2019-04-01T20:56:21.773Z,5.85
2019-04-01T20:58:56.005Z,5.81
2019-04-01T21:01:29.329Z,5.78
2019-04-01T21:04:02.766Z,5.74
2019-04-01T21:06:37.441Z,5.74
2019-04-01T21:09:11.214Z,5.67
2019-04-01T21:11:44.332Z,5.67
2019-04-01T21:14:17.350Z,5.60
2019-04-01T21:16:50.317Z,5.57
2019-04-01T21:19:23.492Z,5.52
2019-04-01T21:21:56.962Z,5.50
2019-04-01T21:24:29.894Z,5.47
2019-04-01T21:27:02.910Z,5.44
2019-04-01T21:29:36.053Z,5.41
2019-04-01T21:32:09.354Z,5.37
2019-04-01T21:34:42.233Z,5.31
2019-04-01T21:37:15.161Z,5.28
2019-04-01T21:39:48.712Z,5.26
2019-04-01T21:42:22.123Z,5.34
2019-04-01T21:44:55.531Z,5.28
2019-04-01T21:47:28.483Z,5.30
2019-04-01T21:50:01.579Z,5.31
2019-04-01T21:52:39.215Z,5.31
2019-04-01T21:55:16.264Z,5.28
2019-04-01T21:57:51.059Z,5.31
2019-04-01T22:00:43.172Z,5.31
2019-04-01T22:03:16.471Z,5.28
2019-04-01T22:05:49.379Z,5.28
2019-04-01T22:08:22.361Z,5.33
2019-04-01T22:10:55.381Z,5.24
2019-04-01T22:13:30.313Z,5.38
2019-04-01T22:16:03.128Z,5.28
2019-04-01T22:18:36.101Z,5.41
2019-04-01T22:21:09.043Z,5.40
2019-04-01T22:23:41.974Z,5.26
2019-04-01T22:26:16.028Z,5.40
2019-04-01T22:28:49.086Z,5.34
2019-04-01T22:31:22.269Z,5.28
2019-04-01T22:33:55.578Z,5.24
2019-04-01T22:36:31.349Z,5.33
2019-04-01T22:39:06.790Z,5.34
2019-04-01T22:41:41.620Z,5.51
2019-04-01T22:44:15.619Z,5.37
2019-04-01T22:46:50.235Z,5.30
2019-04-01T22:49:23.660Z,5.37
2019-04-01T22:51:56.888Z,5.26
2019-04-01T22:54:31.105Z,5.35
2019-04-01T22:57:06.671Z,5.27
2019-04-01T22:59:43.501Z,5.58
2019-04-01T23:02:16.861Z,5.48
2019-04-01T23:04:50.481Z,5.34
2019-04-01T23:07:23.966Z,5.35
2019-04-01T23:09:58.089Z,5.31
2019-04-01T23:12:32.328Z,5.45
2019-04-01T23:15:06.570Z,5.37
2019-04-01T23:17:42.447Z,5.34
2019-04-01T23:20:18.493Z,5.40
2019-04-01T23:22:52.090Z,5.28
2019-04-01T23:25:26.263Z,5.62
2019-04-01T23:28:00.922Z,5.41
2019-04-01T23:30:37.862Z,5.26
2019-04-01T23:33:12.050Z,5.52
2019-04-01T23:35:45.472Z,5.33
2019-04-01T23:38:19.216Z,5.43
2019-04-01T23:40:53.849Z,5.38
2019-04-01T23:43:27.209Z,5.50
2019-04-01T23:46:00.980Z,5.54
2019-04-01T23:48:35.780Z,5.31
2019-04-01T23:51:09.228Z,5.58
2019-04-01T23:53:42.733Z,5.44
2019-04-01T23:56:16.952Z,5.27
2019-04-01T23:58:51.159Z,5.60
